Time;durP1;ratioP1;P1;durP2;ratioP2;P2;SDS_P1;SDS_P2;PMS_P1;PMS_P2;Temp;Humidity;BMP_temperature;BMP_pressure;BME280_temperature;BME280_humidity;BME280_pressure;Samples;Min_cycle;Max_cycle;Signal;HPM_P1;HPM_P2
2021/04/01 00:00:09;;;;;;;0.22;0.22;;;;;;;;;;5089712;28;20184;-77
2021/04/01 00:02:35;;;;;;;0.90;0.82;;;;;;;;;;5089779;28;20235;-76
2021/04/01 00:05:01;;;;;;;0.50;0.50;;;;;;;;;;5071683;28;20172;-77
2021/04/01 00:07:28;;;;;;;0.20;0.20;;;;;;;;;;5089558;28;20156;-75
2021/04/01 00:09:54;;;;;;;0.47;0.47;;;;;;;;;;5089633;28;20175;-77
2021/04/01 00:12:20;;;;;;;0.00;0.00;;;;;;;;;;5089628;28;20224;-76
2021/04/01 00:14:49;;;;;;;0.85;0.85;;;;;;;;;;5089521;28;20347;-76
2021/04/01 00:17:16;;;;;;;0.10;0.10;;;;;;;;;;5089534;28;20156;-76
2021/04/01 00:19:42;;;;;;;0.65;0.65;;;;;;;;;;5089326;28;20230;-77
2021/04/01 00:22:08;;;;;;;0.00;0.00;;;;;;;;;;5089531;28;20164;-77
2021/04/01 00:24:34;;;;;;;0.10;0.10;;;;;;;;;;5071479;28;20164;-76
2021/04/01 00:27:01;;;;;;;0.65;0.65;;;;;;;;;;5089357;28;20152;-76
2021/04/01 00:29:27;;;;;;;0.10;0.10;;;;;;;;;;5071241;28;20199;-76
2021/04/01 00:31:53;;;;;;;1.65;0.43;;;;;;;;;;5089545;28;20191;-77
2021/04/01 00:34:19;;;;;;;0.65;0.57;;;;;;;;;;5089395;28;20179;-76
2021/04/01 00:36:46;;;;;;;5.93;1.00;;;;;;;;;;5089414;28;20217;-76
2021/04/01 00:39:12;;;;;;;0.20;0.10;;;;;;;;;;5089145;28;20207;-76
2021/04/01 00:41:41;;;;;;;0.32;0.32;;;;;;;;;;5089309;28;20180;-77
2021/04/01 00:44:08;;;;;;;0.35;0.35;;;;;;;;;;5089225;28;20180;-76
2021/04/01 00:46:34;;;;;;;0.10;0.10;;;;;;;;;;5089320;28;20167;-76
2021/04/01 00:49:00;;;;;;;0.20;0.20;;;;;;;;;;5070836;28;20199;-76
2021/04/01 00:51:27;;;;;;;0.55;0.50;;;;;;;;;;5071235;28;20573;-76
2021/04/01 00:53:54;;;;;;;0.20;0.20;;;;;;;;;;5089185;28;20164;-77
2021/04/01 00:56:20;;;;;;;0.52;0.52;;;;;;;;;;5071187;28;20543;-76
2021/04/01 00:58:46;;;;;;;0.22;0.22;;;;;;;;;;5088976;28;20321;-77
2021/04/01 01:02:01;;;;;;;0.80;0.80;;;;;;;;;;5089258;28;20168;-77
2021/04/01 01:03:59;;;;;;;0.25;0.25;;;;;;;;;;5077940;28;20183;-76
2021/04/01 01:06:25;;;;;;;0.65;0.52;;;;;;;;;;5088983;28;20161;-76
2021/04/01 01:08:51;;;;;;;0.15;0.15;;;;;;;;;;5071017;28;20206;-75
2021/04/01 01:11:18;;;;;;;0.30;0.30;;;;;;;;;;5071061;28;20168;-76
2021/04/01 01:13:44;;;;;;;0.22;0.22;;;;;;;;;;5071073;28;20255;-76
2021/04/01 01:16:10;;;;;;;0.25;0.25;;;;;;;;;;5071060;28;20164;-76
2021/04/01 01:18:36;;;;;;;0.70;0.38;;;;;;;;;;5088782;28;20211;-76
2021/04/01 01:21:03;;;;;;;0.73;0.73;;;;;;;;;;5088929;28;20157;-75
2021/04/01 01:23:30;;;;;;;1.15;0.40;;;;;;;;;;5088863;28;20231;-76
2021/04/01 01:25:57;;;;;;;0.47;0.47;;;;;;;;;;5070774;28;20202;-75
2021/04/01 01:28:24;;;;;;;0.40;0.40;;;;;;;;;;5070653;28;20219;-76
2021/04/01 01:30:50;;;;;;;1.60;1.50;;;;;;;;;;5088916;28;20168;-75
2021/04/01 01:33:20;;;;;;;0.20;0.20;;;;;;;;;;5092538;28;20189;-75
2021/04/01 01:35:47;;;;;;;0.20;0.20;;;;;;;;;;5092528;28;20151;-75
2021/04/01 01:38:14;;;;;;;0.20;0.20;;;;;;;;;;5092342;28;20192;-76
2021/04/01 01:40:40;;;;;;;0.10;0.10;;;;;;;;;;5092400;28;20168;-76
2021/04/01 01:43:10;;;;;;;0.40;0.40;;;;;;;;;;5092365;28;20239;-76
2021/04/01 01:45:37;;;;;;;0.20;0.20;;;;;;;;;;5092388;28;20157;-76
2021/04/01 01:48:03;;;;;;;0.40;0.40;;;;;;;;;;5074131;28;20619;-76
2021/04/01 01:50:31;;;;;;;0.65;0.32;;;;;;;;;;5092063;28;20223;-76
2021/04/01 01:52:58;;;;;;;4.97;0.60;;;;;;;;;;5074179;28;20175;-76
2021/04/01 01:55:25;;;;;;;0.20;0.20;;;;;;;;;;5092099;28;20164;-76
2021/04/01 01:57:52;;;;;;;0.13;0.13;;;;;;;;;;5074133;28;20692;-76
2021/04/01 02:00:38;;;;;;;0.22;0.22;;;;;;;;;;5092011;28;20645;-76
2021/04/01 02:03:05;;;;;;;0.25;0.25;;;;;;;;;;5057459;28;20191;-75
2021/04/01 02:05:33;;;;;;;0.00;0.00;;;;;;;;;;5091979;28;20187;-76
2021/04/01 02:08:00;;;;;;;2.10;0.47;;;;;;;;;;5091751;28;20195;-77
2021/04/01 02:10:26;;;;;;;0.65;0.65;;;;;;;;;;5073721;28;20235;-76
2021/04/01 02:12:56;;;;;;;1.45;0.45;;;;;;;;;;5091991;28;20175;-76
2021/04/01 02:15:26;;;;;;;0.13;0.13;;;;;;;;;;5091770;28;20224;-77
2021/04/01 02:18:01;;;;;;;0.20;0.20;;;;;;;;;;5073623;28;20199;-75
2021/04/01 02:20:27;;;;;;;0.10;0.10;;;;;;;;;;5091603;28;20187;-76
2021/04/01 02:22:53;;;;;;;1.27;1.27;;;;;;;;;;5091633;28;20186;-76
2021/04/01 02:25:20;;;;;;;2.15;1.42;;;;;;;;;;5091758;28;20641;-76
2021/04/01 02:27:46;;;;;;;0.85;0.63;;;;;;;;;;5091558;28;20187;-76
2021/04/01 02:30:13;;;;;;;2.50;1.40;;;;;;;;;;5073393;28;20167;-76
2021/04/01 02:32:39;;;;;;;1.90;1.80;;;;;;;;;;5073291;28;20164;-76
2021/04/01 02:35:06;;;;;;;1.30;0.80;;;;;;;;;;5073207;28;20172;-76
2021/04/01 02:37:32;;;;;;;1.58;1.38;;;;;;;;;;5091147;28;20214;-75
2021/04/01 02:39:58;;;;;;;0.38;0.38;;;;;;;;;;5091385;28;20215;-76
2021/04/01 02:42:24;;;;;;;1.05;1.05;;;;;;;;;;5073058;28;20175;-76
2021/04/01 02:44:51;;;;;;;0.38;0.38;;;;;;;;;;5091118;28;20628;-76
2021/04/01 02:47:17;;;;;;;0.10;0.10;;;;;;;;;;5091019;28;20247;-76
2021/04/01 02:49:43;;;;;;;1.25;1.00;;;;;;;;;;5090805;28;20223;-76
2021/04/01 02:52:09;;;;;;;0.17;0.17;;;;;;;;;;5090799;28;20210;-75
2021/04/01 02:54:35;;;;;;;1.45;0.47;;;;;;;;;;5090907;28;20167;-76
2021/04/01 02:57:01;;;;;;;1.20;1.20;;;;;;;;;;5090832;28;20223;-76
2021/04/01 02:59:28;;;;;;;0.47;0.47;;;;;;;;;;5090310;28;20200;-77
2021/04/01 03:01:54;;;;;;;0.13;0.13;;;;;;;;;;5072800;28;20214;-76
2021/04/01 03:04:20;;;;;;;1.30;1.10;;;;;;;;;;5090676;28;20182;-75
2021/04/01 03:06:47;;;;;;;0.10;0.08;;;;;;;;;;5090612;28;20160;-75
2021/04/01 03:09:13;;;;;;;0.85;0.85;;;;;;;;;;5090530;28;20195;-76
2021/04/01 03:11:39;;;;;;;0.57;0.20;;;;;;;;;;5090572;28;20167;-76
2021/04/01 03:14:05;;;;;;;0.32;0.32;;;;;;;;;;5072678;28;20182;-76
2021/04/01 03:16:31;;;;;;;0.68;0.68;;;;;;;;;;5072372;28;20172;-76
2021/04/01 03:18:57;;;;;;;0.10;0.10;;;;;;;;;;5090264;28;20204;-76
2021/04/01 03:21:25;;;;;;;0.28;0.28;;;;;;;;;;5072330;28;20175;-76
2021/04/01 03:23:51;;;;;;;0.20;0.20;;;;;;;;;;5090304;28;20255;-77
2021/04/01 03:26:17;;;;;;;0.90;0.90;;;;;;;;;;5072514;28;20180;-76
2021/04/01 03:28:44;;;;;;;0.35;0.35;;;;;;;;;;5090085;28;20727;-76
2021/04/01 03:31:10;;;;;;;0.20;0.20;;;;;;;;;;5090194;28;20164;-76
2021/04/01 03:33:36;;;;;;;0.25;0.25;;;;;;;;;;5090256;28;20165;-76
2021/04/01 03:36:03;;;;;;;0.60;0.60;;;;;;;;;;5090154;28;20162;-75
2021/04/01 03:38:29;;;;;;;0.10;0.10;;;;;;;;;;5071787;28;20201;-77
2021/04/01 03:40:55;;;;;;;0.10;0.10;;;;;;;;;;5089964;28;20219;-76
2021/04/01 03:43:23;;;;;;;1.15;1.15;;;;;;;;;;5089968;28;20188;-75
2021/04/01 03:45:49;;;;;;;0.80;0.80;;;;;;;;;;5089842;28;20171;-76
2021/04/01 03:48:16;;;;;;;0.90;0.90;;;;;;;;;;5089763;28;20183;-76
2021/04/01 03:50:42;;;;;;;0.10;0.10;;;;;;;;;;5089371;28;20228;-75
2021/04/01 03:53:08;;;;;;;0.77;0.77;;;;;;;;;;5071694;28;20221;-76
2021/04/01 03:58:13;;;;;;;0.10;0.10;;;;;;;;;;5089731;28;20207;-76
2021/04/01 04:00:41;;;;;;;0.63;0.63;;;;;;;;;;5089183;28;20184;-76
2021/04/01 04:14:07;;;;;;;0.45;0.45;;;;;;;;;;5089150;28;20542;-76
2021/04/01 04:16:33;;;;;;;0.75;0.75;;;;;;;;;;5071470;28;20175;-77
2021/04/01 04:18:59;;;;;;;0.32;0.32;;;;;;;;;;5071629;28;20263;-76
2021/04/01 04:21:26;;;;;;;0.80;0.80;;;;;;;;;;5089352;28;20182;-77
2021/04/01 04:23:53;;;;;;;3.55;1.17;;;;;;;;;;5071273;28;20168;-76
2021/04/01 04:26:20;;;;;;;0.50;0.50;;;;;;;;;;5089321;28;20175;-76
2021/04/01 04:28:46;;;;;;;8.38;0.57;;;;;;;;;;5089471;28;20188;-77
2021/04/01 04:31:12;;;;;;;0.60;0.60;;;;;;;;;;5071022;28;20172;-77
2021/04/01 04:33:39;;;;;;;0.73;0.73;;;;;;;;;;5089385;28;20167;-77
2021/04/01 04:36:05;;;;;;;2.05;1.95;;;;;;;;;;5089339;28;20171;-77
2021/04/01 04:38:32;;;;;;;0.30;0.30;;;;;;;;;;5070677;28;20203;-77
2021/04/01 04:40:58;;;;;;;0.43;0.43;;;;;;;;;;5089242;28;20160;-76
2021/04/01 04:43:25;;;;;;;0.40;0.40;;;;;;;;;;5071041;28;20168;-76
2021/04/01 04:45:51;;;;;;;1.15;1.05;;;;;;;;;;5089218;28;20164;-76
2021/04/01 04:48:18;;;;;;;0.20;0.20;;;;;;;;;;5071055;28;20192;-75
2021/04/01 04:50:44;;;;;;;1.13;0.88;;;;;;;;;;5088753;28;20227;-76
2021/04/01 04:53:11;;;;;;;1.20;1.20;;;;;;;;;;5088880;28;20183;-75
2021/04/01 04:55:37;;;;;;;0.20;0.20;;;;;;;;;;5070888;28;20203;-77
2021/04/01 04:58:24;;;;;;;1.73;1.63;;;;;;;;;;5088548;28;20199;-77
2021/04/01 05:06:03;;;;;;;0.20;0.20;;;;;;;;;;5089500;28;20160;-76
2021/04/01 05:08:29;;;;;;;1.48;1.10;;;;;;;;;;5092813;28;20629;-76
2021/04/01 05:10:56;;;;;;;0.40;0.40;;;;;;;;;;5074830;28;20188;-76
2021/04/01 05:13:22;;;;;;;0.98;0.50;;;;;;;;;;5092786;28;20164;-76
2021/04/01 05:15:49;;;;;;;0.50;0.50;;;;;;;;;;5074732;28;20191;-76
2021/04/01 05:18:21;;;;;;;1.90;1.33;;;;;;;;;;5092575;28;20215;-75
2021/04/01 05:20:49;;;;;;;0.63;0.52;;;;;;;;;;5092242;28;20172;-76
2021/04/01 05:25:42;;;;;;;0.55;0.55;;;;;;;;;;5092663;28;20253;-76
2021/04/01 05:31:11;;;;;;;0.45;0.45;;;;;;;;;;5030344;28;20212;-76
2021/04/01 05:33:42;;;;;;;0.65;0.65;;;;;;;;;;5030378;28;20182;-75
2021/04/01 05:36:10;;;;;;;0.50;0.50;;;;;;;;;;5030652;28;20162;-76
2021/04/01 05:38:37;;;;;;;0.65;0.65;;;;;;;;;;5030066;28;20297;-75
2021/04/01 05:41:04;;;;;;;1.25;1.02;;;;;;;;;;5030097;28;20197;-76
2021/04/01 05:43:35;;;;;;;0.98;0.98;;;;;;;;;;5030218;28;20682;-76
2021/04/01 06:02:22;;;;;;;0.43;0.43;;;;;;;;;;5010234;28;20162;-76
2021/04/01 06:04:53;;;;;;;1.77;1.25;;;;;;;;;;5032800;28;20650;-76
2021/04/01 06:07:24;;;;;;;1.65;0.38;;;;;;;;;;5071530;28;20163;-77
2021/04/01 06:09:55;;;;;;;1.25;1.13;;;;;;;;;;5071461;28;20188;-76
2021/04/01 06:12:22;;;;;;;1.20;0.60;;;;;;;;;;5053532;28;20184;-76
2021/04/01 06:14:57;;;;;;;0.25;0.25;;;;;;;;;;5053380;28;20169;-77
2021/04/01 06:17:24;;;;;;;0.52;0.52;;;;;;;;;;5069291;28;20171;-77
2021/04/01 06:19:53;;;;;;;0.43;0.43;;;;;;;;;;5042195;28;20201;-77
2021/04/01 06:22:20;;;;;;;4.10;1.75;;;;;;;;;;5037485;28;20174;-77
2021/04/01 06:24:49;;;;;;;0.68;0.68;;;;;;;;;;5051112;28;20161;-76
2021/04/01 06:27:31;;;;;;;0.63;0.63;;;;;;;;;;5033251;28;20188;-76
2021/04/01 06:32:50;;;;;;;1.17;1.08;;;;;;;;;;5050885;28;20173;-76
2021/04/01 06:35:24;;;;;;;0.75;0.75;;;;;;;;;;5050946;28;20196;-76
2021/04/01 06:40:37;;;;;;;3.42;1.80;;;;;;;;;;5051108;28;20241;-76
2021/04/01 06:43:09;;;;;;;1.33;1.23;;;;;;;;;;5050744;28;20187;-76
2021/04/01 06:45:37;;;;;;;0.80;0.80;;;;;;;;;;5050817;28;20165;-76
2021/04/01 06:48:04;;;;;;;1.92;0.80;;;;;;;;;;5050893;28;20217;-76
2021/04/01 06:50:35;;;;;;;0.82;0.82;;;;;;;;;;5032640;28;20244;-75
2021/04/01 06:53:08;;;;;;;0.88;0.45;;;;;;;;;;5032805;28;20173;-76
2021/04/01 06:55:45;;;;;;;0.70;0.70;;;;;;;;;;5032759;28;20271;-77
2021/04/01 06:58:23;;;;;;;5.60;1.42;;;;;;;;;;5050520;28;20197;-76
2021/04/01 07:03:36;;;;;;;1.83;1.67;;;;;;;;;;5050645;28;20154;-76
2021/04/01 07:06:18;;;;;;;1.67;1.58;;;;;;;;;;5032754;28;20176;-76
2021/04/01 07:11:24;;;;;;;1.05;1.05;;;;;;;;;;5049822;28;20170;-76
2021/04/01 07:13:53;;;;;;;4.03;2.38;;;;;;;;;;5031731;28;20236;-76
2021/04/01 07:19:21;;;;;;;3.70;2.42;;;;;;;;;;5050492;28;20201;-76
2021/04/01 07:47:16;;;;;;;3.05;2.15;;;;;;;;;;5049056;28;20592;-77
2021/04/01 07:49:46;;;;;;;3.50;1.23;;;;;;;;;;5056430;28;20220;-77
2021/04/01 07:52:13;;;;;;;1.15;1.13;;;;;;;;;;5068906;28;20168;-77
2021/04/01 08:00:10;;;;;;;1.38;1.27;;;;;;;;;;5068807;28;20191;-77
2021/04/01 08:03:02;;;;;;;4.00;2.10;;;;;;;;;;5068791;28;20156;-77
2021/04/01 08:05:33;;;;;;;1.38;1.27;;;;;;;;;;5068725;28;20152;-77
2021/04/01 08:08:02;;;;;;;3.58;1.10;;;;;;;;;;5069010;28;20180;-78
2021/04/01 08:10:31;;;;;;;2.38;0.98;;;;;;;;;;5069315;28;20225;-77
2021/04/01 08:13:03;;;;;;;0.75;0.73;;;;;;;;;;5051094;28;20206;-77
2021/04/01 08:15:35;;;;;;;28.73;1.60;;;;;;;;;;5069276;28;20577;-77
2021/04/01 08:20:37;;;;;;;1.35;1.00;;;;;;;;;;5056722;28;20214;-76
2021/04/01 08:25:49;;;;;;;2.90;1.13;;;;;;;;;;5051367;28;20164;-77
2021/04/01 08:36:21;;;;;;;3.63;1.42;;;;;;;;;;5088796;28;20166;-77
2021/04/01 08:38:48;;;;;;;0.90;0.90;;;;;;;;;;5088902;28;20218;-77
2021/04/01 08:41:17;;;;;;;1.70;1.60;;;;;;;;;;5088107;28;20160;-77
2021/04/01 08:43:57;;;;;;;2.28;1.50;;;;;;;;;;5065662;28;20168;-77
2021/04/01 08:46:33;;;;;;;0.57;0.57;;;;;;;;;;5068522;28;20168;-76
2021/04/01 08:49:22;;;;;;;1.30;1.20;;;;;;;;;;5067568;28;20191;-76
2021/04/01 08:51:48;;;;;;;1.52;1.10;;;;;;;;;;5068049;28;20168;-77
2021/04/01 08:54:15;;;;;;;1.20;0.90;;;;;;;;;;5069165;28;20207;-77
2021/04/01 08:56:57;;;;;;;1.13;0.63;;;;;;;;;;5067908;28;20290;-77
2021/04/01 08:59:24;;;;;;;31.13;2.35;;;;;;;;;;5067702;28;20225;-77
2021/04/01 09:01:52;;;;;;;31.98;2.22;;;;;;;;;;5050190;28;20195;-77
2021/04/01 09:04:22;;;;;;;3.80;1.45;;;;;;;;;;5067197;28;20565;-76
2021/04/01 09:06:49;;;;;;;1.15;0.93;;;;;;;;;;5050319;28;20196;-77
2021/04/01 09:09:22;;;;;;;0.73;0.50;;;;;;;;;;5068500;28;20665;-77
2021/04/01 09:12:05;;;;;;;1.58;1.40;;;;;;;;;;5050131;28;20168;-77
2021/04/01 09:14:34;;;;;;;1.20;0.55;;;;;;;;;;5050534;28;20178;-76
2021/04/01 09:17:09;;;;;;;0.98;0.82;;;;;;;;;;5068492;28;20184;-77
2021/04/01 09:19:36;;;;;;;1.45;1.13;;;;;;;;;;5073511;28;20203;-78
2021/04/01 09:22:03;;;;;;;1.55;0.93;;;;;;;;;;5088603;28;20171;-77
2021/04/01 09:24:30;;;;;;;2.92;1.17;;;;;;;;;;5088499;28;20152;-77
2021/04/01 09:26:56;;;;;;;1.52;1.02;;;;;;;;;;5085495;28;20167;-76
2021/04/01 09:29:22;;;;;;;1.08;0.50;;;;;;;;;;5070471;28;20287;-77
2021/04/01 09:31:56;;;;;;;1.40;1.17;;;;;;;;;;5070069;28;20168;-77
2021/04/01 09:34:23;;;;;;;0.52;0.52;;;;;;;;;;5088244;28;20194;-76
2021/04/01 09:36:50;;;;;;;0.68;0.68;;;;;;;;;;5088283;28;20525;-77
2021/04/01 09:41:44;;;;;;;0.85;0.85;;;;;;;;;;5088224;28;20189;-76
2021/04/01 09:44:10;;;;;;;6.03;1.25;;;;;;;;;;5069939;28;20202;-76
2021/04/01 09:46:37;;;;;;;2.63;1.63;;;;;;;;;;5088151;28;20202;-76
2021/04/01 09:49:04;;;;;;;13.10;1.35;;;;;;;;;;5087974;28;20241;-76
2021/04/01 09:51:31;;;;;;;1.25;1.00;;;;;;;;;;5087814;28;20159;-76
2021/04/01 09:53:59;;;;;;;1.02;0.93;;;;;;;;;;5073132;28;20171;-76
2021/04/01 09:56:34;;;;;;;2.65;1.88;;;;;;;;;;5091642;28;20190;-76
2021/04/01 09:59:00;;;;;;;16.05;1.27;;;;;;;;;;5073652;28;20206;-77
2021/04/01 10:04:06;;;;;;;2.75;0.77;;;;;;;;;;5091471;28;20762;-77
2021/04/01 10:06:47;;;;;;;0.30;0.30;;;;;;;;;;5091326;28;20187;-77
2021/04/01 10:09:13;;;;;;;1.05;0.40;;;;;;;;;;5091311;28;20278;-78
2021/04/01 10:12:04;;;;;;;0.93;0.70;;;;;;;;;;5073207;28;20206;-78
2021/04/01 10:14:31;;;;;;;0.98;0.68;;;;;;;;;;5062003;28;20187;-78
2021/04/01 10:17:04;;;;;;;0.38;0.38;;;;;;;;;;5091377;28;20160;-77
2021/04/01 10:19:32;;;;;;;0.30;0.30;;;;;;;;;;5090931;28;20251;-77
2021/04/01 10:21:59;;;;;;;2.15;1.00;;;;;;;;;;5074768;28;20176;-77
2021/04/01 10:24:34;;;;;;;0.52;0.43;;;;;;;;;;5059550;28;20184;-78
2021/04/01 10:27:13;;;;;;;0.50;0.38;;;;;;;;;;5091174;28;20245;-77
2021/04/01 10:32:12;;;;;;;0.32;0.32;;;;;;;;;;5090532;28;20170;-77
2021/04/01 10:34:52;;;;;;;0.43;0.40;;;;;;;;;;5090783;28;20644;-77
2021/04/01 10:37:20;;;;;;;2.03;0.68;;;;;;;;;;5072540;28;20191;-77
2021/04/01 10:39:46;;;;;;;7.88;0.68;;;;;;;;;;5072735;28;20187;-77
2021/04/01 10:42:13;;;;;;;1.08;0.88;;;;;;;;;;5072723;28;20173;-77
2021/04/01 10:44:40;;;;;;;0.13;0.13;;;;;;;;;;5090699;28;20167;-77
2021/04/01 10:47:08;;;;;;;0.77;0.50;;;;;;;;;;5090706;28;20164;-77
2021/04/01 10:49:36;;;;;;;0.30;0.30;;;;;;;;;;5090254;28;20276;-77
2021/04/01 10:52:04;;;;;;;1.23;0.88;;;;;;;;;;5090629;28;20168;-78
2021/04/01 10:54:37;;;;;;;0.20;0.20;;;;;;;;;;5090531;28;20151;-77
2021/04/01 10:57:04;;;;;;;0.80;0.60;;;;;;;;;;5072295;28;20217;-77
2021/04/01 10:59:39;;;;;;;0.93;0.75;;;;;;;;;;5089800;28;20195;-77
2021/04/01 11:02:13;;;;;;;0.98;0.98;;;;;;;;;;5072264;28;20187;-77
2021/04/01 11:04:40;;;;;;;0.38;0.38;;;;;;;;;;5089260;28;20163;-77
2021/04/01 11:07:06;;;;;;;1.02;0.55;;;;;;;;;;5090230;28;20223;-78
2021/04/01 11:09:33;;;;;;;1.40;0.70;;;;;;;;;;5089812;28;20302;-77
2021/04/01 11:14:39;;;;;;;0.93;0.75;;;;;;;;;;5090410;28;20166;-77
2021/04/01 11:17:08;;;;;;;0.77;0.77;;;;;;;;;;5090239;28;20148;-77
2021/04/01 11:19:36;;;;;;;0.73;0.73;;;;;;;;;;5089781;28;20229;-77
2021/04/01 11:22:03;;;;;;;0.75;0.73;;;;;;;;;;5089846;28;20209;-78
2021/04/01 11:24:36;;;;;;;0.68;0.45;;;;;;;;;;5089819;28;20221;-78
2021/04/01 11:27:06;;;;;;;0.52;0.52;;;;;;;;;;5089781;28;20178;-78
2021/04/01 11:29:33;;;;;;;1.13;0.65;;;;;;;;;;5071819;28;20207;-78
2021/04/01 11:32:15;;;;;;;1.15;1.05;;;;;;;;;;5071872;28;20164;-76
2021/04/01 11:34:44;;;;;;;10.90;0.93;;;;;;;;;;5089739;28;20156;-77
2021/04/01 11:37:12;;;;;;;1.17;1.00;;;;;;;;;;5072119;28;20594;-78
2021/04/01 11:39:39;;;;;;;0.40;0.40;;;;;;;;;;5071617;28;20203;-78
2021/04/01 11:42:09;;;;;;;0.35;0.35;;;;;;;;;;5071938;28;20175;-77
2021/04/01 11:44:36;;;;;;;0.95;0.38;;;;;;;;;;5089589;28;20160;-78
2021/04/01 11:47:13;;;;;;;0.32;0.32;;;;;;;;;;5071845;28;20172;-78
2021/04/01 11:49:39;;;;;;;0.20;0.20;;;;;;;;;;5067506;28;20223;-79
2021/04/01 11:52:08;;;;;;;0.68;0.68;;;;;;;;;;5067945;28;20187;-78
2021/04/01 11:54:34;;;;;;;1.00;0.40;;;;;;;;;;5068506;28;20168;-79
2021/04/01 11:57:01;;;;;;;0.50;0.30;;;;;;;;;;5068935;28;20199;-78
2021/04/01 11:59:36;;;;;;;0.65;0.65;;;;;;;;;;5069476;28;20195;-78
2021/04/01 12:02:08;;;;;;;1.33;0.60;;;;;;;;;;5069766;28;20166;-79
2021/04/01 12:04:36;;;;;;;0.40;0.30;;;;;;;;;;5069734;28;20628;-78
2021/04/01 12:07:05;;;;;;;1.02;0.50;;;;;;;;;;5069639;28;20157;-79
2021/04/01 12:09:31;;;;;;;0.55;0.45;;;;;;;;;;5069301;28;20199;-79
2021/04/01 12:11:57;;;;;;;0.80;0.60;;;;;;;;;;5069761;28;20176;-78
2021/04/01 12:14:32;;;;;;;0.20;0.20;;;;;;;;;;5069296;28;20159;-79
2021/04/01 12:17:02;;;;;;;1.75;1.08;;;;;;;;;;5067529;28;20639;-79
2021/04/01 12:19:28;;;;;;;0.40;0.40;;;;;;;;;;5069142;28;20676;-78
2021/04/01 12:21:55;;;;;;;0.15;0.15;;;;;;;;;;5067739;28;20247;-78
2021/04/01 12:24:21;;;;;;;0.50;0.47;;;;;;;;;;5067813;28;20209;-78
2021/04/01 12:26:49;;;;;;;3.42;0.85;;;;;;;;;;5068807;28;20217;-78
2021/04/01 12:29:15;;;;;;;0.47;0.47;;;;;;;;;;5068855;28;20203;-77
2021/04/01 12:31:50;;;;;;;6.15;1.73;;;;;;;;;;5068855;28;20163;-78
2021/04/01 12:34:29;;;;;;;0.20;0.20;;;;;;;;;;5068622;28;20178;-77
2021/04/01 12:36:58;;;;;;;0.50;0.10;;;;;;;;;;5068629;28;20152;-76
2021/04/01 12:39:31;;;;;;;0.22;0.22;;;;;;;;;;5068674;28;20524;-78
2021/04/01 12:41:58;;;;;;;0.75;0.40;;;;;;;;;;5067391;28;20175;-79
2021/04/01 12:44:37;;;;;;;2.08;0.90;;;;;;;;;;5068475;28;20171;-78
2021/04/01 12:47:04;;;;;;;1.13;0.50;;;;;;;;;;5055550;28;20200;-77
2021/04/01 12:49:33;;;;;;;0.63;0.25;;;;;;;;;;5053930;28;20208;-68
2021/04/01 12:52:02;;;;;;;0.17;0.17;;;;;;;;;;5049832;28;20171;-68
2021/04/01 12:54:32;;;;;;;0.32;0.32;;;;;;;;;;5063421;28;20168;-68
2021/04/01 12:57:02;;;;;;;2.40;0.40;;;;;;;;;;5067989;28;20186;-68
2021/04/01 12:59:38;;;;;;;0.22;0.22;;;;;;;;;;5049649;28;20192;-69
2021/04/01 13:02:08;;;;;;;0.28;0.20;;;;;;;;;;5067808;28;20218;-68
2021/04/01 13:04:36;;;;;;;0.20;0.20;;;;;;;;;;5065439;28;20171;-69
2021/04/01 13:09:45;;;;;;;0.80;0.75;;;;;;;;;;5068047;28;20602;-69
2021/04/01 13:12:12;;;;;;;2.83;0.75;;;;;;;;;;5067289;28;20168;-68
2021/04/01 13:14:38;;;;;;;0.93;0.85;;;;;;;;;;5050078;28;20179;-68
2021/04/01 13:17:05;;;;;;;3.35;0.32;;;;;;;;;;5067774;28;20242;-69
2021/04/01 13:19:31;;;;;;;0.25;0.25;;;;;;;;;;5050120;28;20195;-68
2021/04/01 13:27:03;;;;;;;0.40;0.40;;;;;;;;;;5088442;28;20176;-69
2021/04/01 13:29:34;;;;;;;15.57;1.08;;;;;;;;;;5073730;28;20214;-69
2021/04/01 13:32:07;;;;;;;0.13;0.10;;;;;;;;;;5074057;28;20171;-69
2021/04/01 13:34:41;;;;;;;0.75;0.50;;;;;;;;;;5091409;28;20190;-69
2021/04/01 13:44:43;;;;;;;0.57;0.45;;;;;;;;;;5091970;28;20297;-68
2021/04/01 13:47:11;;;;;;;1.75;1.00;;;;;;;;;;5091300;28;20151;-68
2021/04/01 13:49:38;;;;;;;0.30;0.30;;;;;;;;;;5091313;28;20211;-68
2021/04/01 14:10:59;;;;;;;0.25;0.25;;;;;;;;;;5071091;28;20222;-68
2021/04/01 14:13:27;;;;;;;0.10;0.10;;;;;;;;;;5070974;28;20187;-68
2021/04/01 14:15:54;;;;;;;0.30;0.30;;;;;;;;;;5070815;28;20191;-68
2021/04/01 14:18:20;;;;;;;0.30;0.30;;;;;;;;;;5071157;28;20199;-68
2021/04/01 14:20:46;;;;;;;2.63;0.88;;;;;;;;;;5053217;28;20164;-69
2021/04/01 14:23:19;;;;;;;0.15;0.15;;;;;;;;;;5070980;28;20161;-68
2021/04/01 14:25:47;;;;;;;5.43;1.58;;;;;;;;;;5081716;28;20199;-68
2021/04/01 14:28:15;;;;;;;0.45;0.28;;;;;;;;;;5090856;28;20195;-69
2021/04/01 14:30:42;;;;;;;0.63;0.47;;;;;;;;;;5066553;28;20187;-69
2021/04/01 14:33:08;;;;;;;0.90;0.90;;;;;;;;;;5070691;28;20153;-68
2021/04/01 14:35:35;;;;;;;1.92;0.98;;;;;;;;;;5070706;28;20157;-68
2021/04/01 14:38:04;;;;;;;0.00;0.00;;;;;;;;;;5070145;28;20621;-68
2021/04/01 14:40:39;;;;;;;0.90;0.82;;;;;;;;;;5070790;28;20153;-68
2021/04/01 14:43:19;;;;;;;0.20;0.20;;;;;;;;;;5052444;28;20183;-76
2021/04/01 14:45:45;;;;;;;0.00;0.00;;;;;;;;;;5052253;28;20162;-77
2021/04/01 14:48:12;;;;;;;1.58;0.38;;;;;;;;;;5052093;28;20219;-75
2021/04/01 14:50:41;;;;;;;1.85;1.35;;;;;;;;;;5068819;28;20219;-76
2021/04/01 14:53:14;;;;;;;9.50;0.20;;;;;;;;;;5070270;28;20164;-76
2021/04/01 14:55:41;;;;;;;0.52;0.35;;;;;;;;;;5070438;28;20603;-76
2021/04/01 14:58:09;;;;;;;1.25;0.65;;;;;;;;;;5070324;28;20258;-76
2021/04/01 15:00:36;;;;;;;0.73;0.73;;;;;;;;;;5067735;28;20160;-76
2021/04/01 15:03:02;;;;;;;0.22;0.22;;;;;;;;;;5046323;28;20195;-76
2021/04/01 15:05:28;;;;;;;0.40;0.40;;;;;;;;;;5069668;28;20182;-76
2021/04/01 15:07:58;;;;;;;0.20;0.20;;;;;;;;;;5069691;28;20219;-76
2021/04/01 15:10:24;;;;;;;0.93;0.40;;;;;;;;;;5067530;28;20729;-76
2021/04/01 15:12:50;;;;;;;0.63;0.57;;;;;;;;;;5069838;28;20176;-76
2021/04/01 15:15:16;;;;;;;0.10;0.10;;;;;;;;;;5051822;28;20179;-74
2021/04/01 15:17:45;;;;;;;0.20;0.20;;;;;;;;;;5069604;28;20195;-75
2021/04/01 15:20:11;;;;;;;10.65;0.75;;;;;;;;;;5069927;28;20172;-76
2021/04/01 15:22:38;;;;;;;0.25;0.10;;;;;;;;;;5052180;28;20195;-75
2021/04/01 15:25:04;;;;;;;0.40;0.20;;;;;;;;;;5052853;28;20202;-75
2021/04/01 15:27:30;;;;;;;0.17;0.17;;;;;;;;;;5085424;28;20182;-75
2021/04/01 15:29:58;;;;;;;0.00;0.00;;;;;;;;;;5071795;28;20679;-75
2021/04/01 15:32:25;;;;;;;0.30;0.30;;;;;;;;;;5060294;28;20173;-76
2021/04/01 15:34:52;;;;;;;0.10;0.10;;;;;;;;;;5069670;28;20167;-76
2021/04/01 15:37:18;;;;;;;5.70;1.05;;;;;;;;;;5069665;28;20156;-76
2021/04/01 15:39:46;;;;;;;0.32;0.25;;;;;;;;;;5069612;28;20192;-76
2021/04/01 15:42:16;;;;;;;0.65;0.65;;;;;;;;;;5069668;28;20179;-76
2021/04/01 15:44:46;;;;;;;0.10;0.10;;;;;;;;;;5051627;28;20175;-76
2021/04/01 15:47:13;;;;;;;5.47;0.52;;;;;;;;;;5051443;28;20175;-77
2021/04/01 15:49:39;;;;;;;16.80;0.80;;;;;;;;;;5061139;28;20221;-77
2021/04/01 15:52:06;;;;;;;0.30;0.30;;;;;;;;;;5031105;28;20598;-77
2021/04/01 15:54:32;;;;;;;0.17;0.17;;;;;;;;;;5048637;28;20180;-77
2021/04/01 15:56:59;;;;;;;0.15;0.15;;;;;;;;;;5049525;28;20168;-77
2021/04/01 15:59:25;;;;;;;1.27;0.88;;;;;;;;;;5049330;28;20197;-76
2021/04/01 16:01:51;;;;;;;1.85;0.75;;;;;;;;;;5049221;28;20571;-77
2021/04/01 16:04:18;;;;;;;0.43;0.40;;;;;;;;;;5049478;28;20165;-77
2021/04/01 16:06:44;;;;;;;1.00;0.90;;;;;;;;;;5031500;28;20184;-76
2021/04/01 16:09:10;;;;;;;0.75;0.20;;;;;;;;;;5048955;28;20205;-76
2021/04/01 16:11:36;;;;;;;0.22;0.22;;;;;;;;;;5049260;28;20208;-76
2021/04/01 16:14:02;;;;;;;2.05;1.85;;;;;;;;;;5031007;28;20248;-76
2021/04/01 16:16:29;;;;;;;0.22;0.22;;;;;;;;;;5049090;28;20232;-76
2021/04/01 16:18:56;;;;;;;1.45;0.45;;;;;;;;;;5031495;28;20207;-76
2021/04/01 16:21:22;;;;;;;0.03;0.03;;;;;;;;;;5031045;28;20169;-76
2021/04/01 16:23:48;;;;;;;0.68;0.30;;;;;;;;;;5048976;28;20568;-77
2021/04/01 16:26:15;;;;;;;0.30;0.30;;;;;;;;;;5045209;28;20196;-76
2021/04/01 16:28:41;;;;;;;9.52;0.57;;;;;;;;;;5068730;28;20200;-77
2021/04/01 16:31:07;;;;;;;0.52;0.52;;;;;;;;;;5050919;28;20220;-77
2021/04/01 16:33:35;;;;;;;0.57;0.47;;;;;;;;;;5068827;28;20157;-76
2021/04/01 16:36:03;;;;;;;0.95;0.20;;;;;;;;;;5068731;28;20243;-77
2021/04/01 16:38:30;;;;;;;0.00;0.00;;;;;;;;;;5045884;28;20682;-76
2021/04/01 16:40:57;;;;;;;2.53;0.75;;;;;;;;;;5048736;28;20180;-76
2021/04/01 16:43:24;;;;;;;0.90;0.50;;;;;;;;;;5048648;28;20165;-76
2021/04/01 16:45:51;;;;;;;0.00;0.00;;;;;;;;;;5030848;28;20200;-76
2021/04/01 16:48:18;;;;;;;0.25;0.25;;;;;;;;;;5030851;28;20200;-76
2021/04/01 16:50:44;;;;;;;0.20;0.20;;;;;;;;;;5029894;28;20224;-76
2021/04/01 16:53:14;;;;;;;0.00;0.00;;;;;;;;;;5048515;28;20173;-76
2021/04/01 16:55:45;;;;;;;1.35;0.30;;;;;;;;;;5031099;28;20268;-77
2021/04/01 16:58:11;;;;;;;0.43;0.43;;;;;;;;;;5048753;28;20185;-76
2021/04/01 17:00:38;;;;;;;0.15;0.15;;;;;;;;;;5047786;28;20178;-76
2021/04/01 17:03:04;;;;;;;0.43;0.43;;;;;;;;;;5034678;28;20188;-77
2021/04/01 17:05:31;;;;;;;1.65;0.65;;;;;;;;;;5034578;28;20181;-76
2021/04/01 17:07:59;;;;;;;4.20;0.20;;;;;;;;;;5052276;28;20197;-76
2021/04/01 17:10:25;;;;;;;0.00;0.00;;;;;;;;;;5052523;28;20546;-76
2021/04/01 17:12:52;;;;;;;0.03;0.03;;;;;;;;;;5034624;28;20516;-77